Terminal Aerodrome Forecast
Issued by NWS Atlanta, GA

Home | Current Version | Previous Version | Text Only | Print | Product List | Glossary On
Versions: 1 2 3 4 5 6 7 8 9 10 11 12 13 14 15 16 17 18 19 20 21 22 23 24 25 26 27 28 29 30 31 32 33 34 35 36 37 38 39
000
FTUS42 KFFC 230202 AAA
TAFATL
TAF AMD
KATL 230202Z 2302/2406 35009KT P6SM SCT120 BKN250
     FM230400 03007KT P6SM BKN120
     FM230900 07011KT P6SM SCT035 BKN100
     FM231500 10012G22KT P6SM BKN030 OVC100
     FM232000 11011KT P6SM BKN035
     FM240100 11008KT P6SM BKN030=

USA.gov is the U.S. government's official web portal to all federal, state and local government web resources and services.